Anchor Bay, California
Current Conditions -  °F | °C
As of 12:56 PM on Thursday 23 Oct 2014 (Local Time) from KUKI Reporting Station
Light Rain Light Rain  
Wind Chill: 61°   Ceiling: 8000
Heat Index: 61°   Visibility: 10mi
Dew Point: 57°   Wind: 3mph
Humidity: 87%   Direction: 120°ESE
Pressure: 30.05"   Gusts: NA
Location:  38.8361°N, 123.43°W
Report Text: KUKI 231956Z AUTO 12003KT 10SM -RA FEW041 BKN080 OVC120 16/14 A3005 RMK AO2 PRESFR SLP171 P0002 T01610139
Loading
Personal Weather Stations






























Interactive Weather Map
Tropical Storm Tracking
New forecast layout! Learn more

10-Day Weather Forecast

Advertisements
Track Severe Weather on mobile